sensor_id;sensor_type;location;lat;lon;timestamp;pressure;altitude;pressure_sealevel;temperature;humidity
10897;BME280;5501;51.176;6.470;2023-03-15T00:00:28;100605.53;;;5.06;77.47
10897;BME280;5501;51.176;6.470;2023-03-15T00:20:35;77469.50;;;-140.81;77.47
10897;BME280;5501;51.176;6.470;2023-03-15T00:25:37;77469.50;;;-140.81;77.47
10897;BME280;5501;51.176;6.470;2023-03-15T00:30:39;100605.53;;;5.06;77.47
10897;BME280;5501;51.176;6.470;2023-03-15T00:35:42;100605.53;;;5.06;77.47
10897;BME280;5501;51.176;6.470;2023-03-15T00:40:44;100605.53;;;5.06;77.47
10897;BME280;5501;51.176;6.470;2023-03-15T00:45:45;77469.50;;;-140.81;77.47
10897;BME280;5501;51.176;6.470;2023-03-15T00:50:47;57965.28;;;-140.81;nan
10897;BME280;5501;51.176;6.470;2023-03-15T00:55:49;57965.28;;;-140.81;100.00
10897;BME280;5501;51.176;6.470;2023-03-15T01:00:50;57965.28;;;-140.81;100.00
10897;BME280;5501;51.176;6.470;2023-03-15T01:05:52;57965.28;;;-140.81;100.00
10897;BME280;5501;51.176;6.470;2023-03-15T01:10:54;57965.28;;;-140.81;58.79
10897;BME280;5501;51.176;6.470;2023-03-15T01:15:55;57965.28;;;-140.81;100.00
10897;BME280;5501;51.176;6.470;2023-03-15T01:20:57;57965.28;;;-140.81;100.00
10897;BME280;5501;51.176;6.470;2023-03-15T01:26:04;57965.28;;;-140.81;100.00
10897;BME280;5501;51.176;6.470;2023-03-15T01:31:06;57965.28;;;-140.81;100.00
10897;BME280;5501;51.176;6.470;2023-03-15T01:36:10;57965.28;;;-140.81;100.00
10897;BME280;5501;51.176;6.470;2023-03-15T01:41:13;57965.28;;;-140.81;100.00
10897;BME280;5501;51.176;6.470;2023-03-15T01:51:27;57965.28;;;-140.81;100.00
10897;BME280;5501;51.176;6.470;2023-03-15T01:56:33;57965.28;;;-140.81;100.00
10897;BME280;5501;51.176;6.470;2023-03-15T02:01:37;57965.28;;;-140.81;100.00
10897;BME280;5501;51.176;6.470;2023-03-15T02:06:46;57965.28;;;-140.81;100.00
10897;BME280;5501;51.176;6.470;2023-03-15T02:11:48;57965.28;;;-140.81;100.00
10897;BME280;5501;51.176;6.470;2023-03-15T02:16:51;57965.28;;;-140.81;100.00
10897;BME280;5501;51.176;6.470;2023-03-15T02:22:01;57965.28;;;-140.81;100.00
10897;BME280;5501;51.176;6.470;2023-03-15T02:27:07;57965.28;;;-140.81;100.00
10897;BME280;5501;51.176;6.470;2023-03-15T02:32:08;57965.28;;;-140.81;100.00
10897;BME280;5501;51.176;6.470;2023-03-15T02:37:10;57965.28;;;-140.81;100.00
10897;BME280;5501;51.176;6.470;2023-03-15T02:42:12;57965.28;;;-140.81;100.00
10897;BME280;5501;51.176;6.470;2023-03-15T02:47:21;57965.28;;;-140.81;100.00
10897;BME280;5501;51.176;6.470;2023-03-15T02:52:25;57965.28;;;-140.81;100.00
10897;BME280;5501;51.176;6.470;2023-03-15T02:57:27;57965.28;;;-140.81;100.00
10897;BME280;5501;51.176;6.470;2023-03-15T03:02:30;57965.28;;;-140.81;100.00
10897;BME280;5501;51.176;6.470;2023-03-15T03:07:31;57965.28;;;-140.81;100.00
10897;BME280;5501;51.176;6.470;2023-03-15T03:12:37;57965.28;;;-140.81;100.00
10897;BME280;5501;51.176;6.470;2023-03-15T03:17:39;57965.28;;;-140.81;100.00
10897;BME280;5501;51.176;6.470;2023-03-15T03:22:41;57965.28;;;-140.81;100.00
10897;BME280;5501;51.176;6.470;2023-03-15T03:27:45;57965.28;;;-140.81;100.00
10897;BME280;5501;51.176;6.470;2023-03-15T03:32:46;57965.28;;;-140.81;100.00
10897;BME280;5501;51.176;6.470;2023-03-15T03:37:48;57965.28;;;-140.81;100.00
10897;BME280;5501;51.176;6.470;2023-03-15T03:42:54;57965.28;;;-140.81;100.00
10897;BME280;5501;51.176;6.470;2023-03-15T03:47:57;57965.28;;;-140.81;100.00
10897;BME280;5501;51.176;6.470;2023-03-15T03:52:58;57965.28;;;-140.81;100.00
10897;BME280;5501;51.176;6.470;2023-03-15T03:58:05;57965.28;;;-140.81;100.00
10897;BME280;5501;51.176;6.470;2023-03-15T04:03:14;57965.28;;;-140.81;100.00
10897;BME280;5501;51.176;6.470;2023-03-15T04:08:22;57965.28;;;-140.81;100.00
10897;BME280;5501;51.176;6.470;2023-03-15T04:13:24;57965.28;;;-140.81;100.00
10897;BME280;5501;51.176;6.470;2023-03-15T04:18:26;57965.28;;;-140.81;100.00
10897;BME280;5501;51.176;6.470;2023-03-15T04:23:28;57965.28;;;-140.81;100.00
10897;BME280;5501;51.176;6.470;2023-03-15T04:28:48;57965.28;;;-140.81;100.00
10897;BME280;5501;51.176;6.470;2023-03-15T04:34:13;57965.28;;;-140.81;100.00
10897;BME280;5501;51.176;6.470;2023-03-15T04:39:33;57965.28;;;-140.81;100.00
10897;BME280;5501;51.176;6.470;2023-03-15T04:44:46;57965.28;;;-140.81;100.00
10897;BME280;5501;51.176;6.470;2023-03-15T04:50:18;57965.28;;;-140.81;100.00
10897;BME280;5501;51.176;6.470;2023-03-15T04:55:33;57965.28;;;-140.81;100.00
10897;BME280;5501;51.176;6.470;2023-03-15T05:00:53;57965.28;;;-140.81;100.00
10897;BME280;5501;51.176;6.470;2023-03-15T05:05:59;57965.28;;;-140.81;100.00
10897;BME280;5501;51.176;6.470;2023-03-15T05:11:33;57965.28;;;-140.81;100.00
10897;BME280;5501;51.176;6.470;2023-03-15T05:16:37;57965.28;;;-140.81;100.00
10897;BME280;5501;51.176;6.470;2023-03-15T05:21:49;57965.28;;;-140.81;100.00
10897;BME280;5501;51.176;6.470;2023-03-15T05:27:16;57965.28;;;-140.81;100.00
10897;BME280;5501;51.176;6.470;2023-03-15T05:32:24;57965.28;;;-140.81;100.00
10897;BME280;5501;51.176;6.470;2023-03-15T05:38:05;57965.28;;;-140.81;100.00
10897;BME280;5501;51.176;6.470;2023-03-15T05:43:33;57965.28;;;-140.81;100.00
10897;BME280;5501;51.176;6.470;2023-03-15T05:48:57;57965.28;;;-140.81;100.00
10897;BME280;5501;51.176;6.470;2023-03-15T05:54:07;57965.28;;;-140.81;100.00
10897;BME280;5501;51.176;6.470;2023-03-15T05:59:20;57965.28;;;-140.81;100.00
10897;BME280;5501;51.176;6.470;2023-03-15T06:04:51;57965.28;;;-140.81;100.00
10897;BME280;5501;51.176;6.470;2023-03-15T06:09:59;57965.28;;;-140.81;100.00
10897;BME280;5501;51.176;6.470;2023-03-15T06:15:01;57965.28;;;-140.81;100.00
10897;BME280;5501;51.176;6.470;2023-03-15T06:20:03;57965.28;;;-140.81;100.00
10897;BME280;5501;51.176;6.470;2023-03-15T06:25:06;57965.28;;;-140.81;100.00
10897;BME280;5501;51.176;6.470;2023-03-15T06:30:08;57965.28;;;-140.81;100.00
10897;BME280;5501;51.176;6.470;2023-03-15T06:35:10;57965.28;;;-140.81;100.00
10897;BME280;5501;51.176;6.470;2023-03-15T06:40:12;57965.28;;;-140.81;100.00
10897;BME280;5501;51.176;6.470;2023-03-15T06:45:13;57965.28;;;-140.81;100.00
10897;BME280;5501;51.176;6.470;2023-03-15T06:50:18;57965.28;;;-140.81;100.00
10897;BME280;5501;51.176;6.470;2023-03-15T06:55:19;57965.28;;;-140.81;100.00
10897;BME280;5501;51.176;6.470;2023-03-15T07:00:22;57965.28;;;-140.81;100.00
10897;BME280;5501;51.176;6.470;2023-03-15T07:05:24;57965.28;;;-140.81;100.00
10897;BME280;5501;51.176;6.470;2023-03-15T07:10:26;57965.28;;;-140.81;100.00
10897;BME280;5501;51.176;6.470;2023-03-15T07:15:27;57965.28;;;-140.81;100.00
10897;BME280;5501;51.176;6.470;2023-03-15T07:20:29;57965.28;;;-140.81;100.00
10897;BME280;5501;51.176;6.470;2023-03-15T07:25:31;57965.28;;;-140.81;100.00
10897;BME280;5501;51.176;6.470;2023-03-15T07:30:51;57965.28;;;-140.81;100.00
10897;BME280;5501;51.176;6.470;2023-03-15T07:35:53;57965.28;;;-140.81;100.00
10897;BME280;5501;51.176;6.470;2023-03-15T07:40:57;57965.28;;;-140.81;100.00
10897;BME280;5501;51.176;6.470;2023-03-15T07:46:01;57965.28;;;-140.81;100.00
10897;BME280;5501;51.176;6.470;2023-03-15T07:51:03;57965.28;;;-140.81;100.00
10897;BME280;5501;51.176;6.470;2023-03-15T07:56:05;57965.28;;;-140.81;100.00
10897;BME280;5501;51.176;6.470;2023-03-15T08:01:06;57965.28;;;-140.81;100.00
10897;BME280;5501;51.176;6.470;2023-03-15T08:06:08;57965.28;;;-140.81;100.00
10897;BME280;5501;51.176;6.470;2023-03-15T08:11:10;57965.28;;;-140.81;100.00
10897;BME280;5501;51.176;6.470;2023-03-15T08:16:11;57965.28;;;-140.81;100.00
10897;BME280;5501;51.176;6.470;2023-03-15T08:21:13;57965.28;;;-140.81;100.00
10897;BME280;5501;51.176;6.470;2023-03-15T08:26:14;57965.28;;;-140.81;100.00
10897;BME280;5501;51.176;6.470;2023-03-15T08:31:16;57965.28;;;-140.81;100.00
10897;BME280;5501;51.176;6.470;2023-03-15T08:36:18;57965.28;;;-140.81;100.00
10897;BME280;5501;51.176;6.470;2023-03-15T08:41:20;57965.28;;;-140.81;100.00
10897;BME280;5501;51.176;6.470;2023-03-15T08:46:21;57965.28;;;-140.81;100.00
10897;BME280;5501;51.176;6.470;2023-03-15T08:51:23;57965.28;;;-140.81;58.79
10897;BME280;5501;51.176;6.470;2023-03-15T08:56:26;57965.28;;;-140.81;100.00
10897;BME280;5501;51.176;6.470;2023-03-15T09:01:28;57965.28;;;-140.81;100.00
10897;BME280;5501;51.176;6.470;2023-03-15T09:06:30;57965.28;;;-140.81;100.00
10897;BME280;5501;51.176;6.470;2023-03-15T09:11:32;57965.28;;;-140.81;77.47
10897;BME280;5501;51.176;6.470;2023-03-15T09:16:33;57965.28;;;-140.81;100.00
10897;BME280;5501;51.176;6.470;2023-03-15T09:21:35;57965.28;;;-140.81;100.00
10897;BME280;5501;51.176;6.470;2023-03-15T09:26:36;57965.28;;;-140.81;100.00
10897;BME280;5501;51.176;6.470;2023-03-15T09:31:37;57965.28;;;-140.81;100.00
10897;BME280;5501;51.176;6.470;2023-03-15T09:36:39;57965.28;;;-140.81;100.00
10897;BME280;5501;51.176;6.470;2023-03-15T09:41:52;57965.28;;;-140.81;100.00
10897;BME280;5501;51.176;6.470;2023-03-15T09:52:28;100605.53;;;5.06;77.47
10897;BME280;5501;51.176;6.470;2023-03-15T09:57:40;57965.28;;;-140.81;nan
10897;BME280;5501;51.176;6.470;2023-03-15T10:02:54;101291.66;;;6.99;82.38
10897;BME280;5501;51.176;6.470;2023-03-15T10:07:56;101291.66;;;6.99;82.38
10897;BME280;5501;51.176;6.470;2023-03-15T10:13:15;101298.44;;;7.45;78.88
10897;BME280;5501;51.176;6.470;2023-03-15T10:18:38;101301.09;;;7.42;77.75
10897;BME280;5501;51.176;6.470;2023-03-15T10:23:49;101302.94;;;7.34;77.14
10897;BME280;5501;51.176;6.470;2023-03-15T10:28:53;101302.94;;;7.34;77.14
10897;BME280;5501;51.176;6.470;2023-03-15T10:33:55;101302.94;;;7.34;77.14
10897;BME280;5501;51.176;6.470;2023-03-15T10:38:57;101301.50;;;8.09;74.35
10897;BME280;5501;51.176;6.470;2023-03-15T10:44:00;101297.94;;;8.14;71.25
10897;BME280;5501;51.176;6.470;2023-03-15T10:49:12;101305.06;;;8.09;72.73
10897;BME280;5501;51.176;6.470;2023-03-15T10:54:22;101308.53;;;8.16;68.15
10897;BME280;5501;51.176;6.470;2023-03-15T10:59:27;101312.19;;;7.98;68.52
10897;BME280;5501;51.176;6.470;2023-03-15T11:04:29;101319.41;;;7.78;62.91
10897;BME280;5501;51.176;6.470;2023-03-15T11:09:43;101322.50;;;8.37;65.65
10897;BME280;5501;51.176;6.470;2023-03-15T11:14:48;101325.94;;;8.48;60.59
10897;BME280;5501;51.176;6.470;2023-03-15T11:24:55;101339.00;;;8.65;53.15
10897;BME280;5501;51.176;6.470;2023-03-15T11:30:00;101339.34;;;8.29;53.54
10897;BME280;5501;51.176;6.470;2023-03-15T11:35:06;101337.59;;;8.26;58.13
10897;BME280;5501;51.176;6.470;2023-03-15T11:40:16;101341.94;;;8.36;58.20
10897;BME280;5501;51.176;6.470;2023-03-15T11:45:33;101349.00;;;8.37;62.05
10897;BME280;5501;51.176;6.470;2023-03-15T11:50:56;101355.31;;;8.21;60.70
10897;BME280;5501;51.176;6.470;2023-03-15T11:56:24;101363.25;;;8.20;58.56
10897;BME280;5501;51.176;6.470;2023-03-15T12:01:26;101359.59;;;8.37;59.58
10897;BME280;5501;51.176;6.470;2023-03-15T12:06:37;101353.53;;;8.19;58.02
10897;BME280;5501;51.176;6.470;2023-03-15T12:11:40;101361.47;;;8.23;58.53
10897;BME280;5501;51.176;6.470;2023-03-15T12:16:44;101361.34;;;8.41;58.78
10897;BME280;5501;51.176;6.470;2023-03-15T12:21:51;101348.94;;;8.43;58.09
10897;BME280;5501;51.176;6.470;2023-03-15T12:27:02;101343.50;;;8.58;57.86
10897;BME280;5501;51.176;6.470;2023-03-15T12:32:10;101346.94;;;8.66;55.17
10897;BME280;5501;51.176;6.470;2023-03-15T12:37:27;101351.44;;;8.58;54.93
10897;BME280;5501;51.176;6.470;2023-03-15T12:47:43;101337.28;;;8.61;53.91
10897;BME280;5501;51.176;6.470;2023-03-15T12:52:45;101346.25;;;8.49;54.79
10897;BME280;5501;51.176;6.470;2023-03-15T12:57:51;101344.38;;;8.59;55.16
10897;BME280;5501;51.176;6.470;2023-03-15T13:03:14;101337.19;;;8.68;56.85
10897;BME280;5501;51.176;6.470;2023-03-15T13:08:21;101345.34;;;8.50;54.23
10897;BME280;5501;51.176;6.470;2023-03-15T13:18:44;101336.53;;;8.48;61.79
10897;BME280;5501;51.176;6.470;2023-03-15T13:23:50;101343.53;;;8.55;55.00
10897;BME280;5501;51.176;6.470;2023-03-15T13:29:01;101332.13;;;8.46;55.82
10897;BME280;5501;51.176;6.470;2023-03-15T13:34:19;101337.41;;;8.49;56.33
10897;BME280;5501;51.176;6.470;2023-03-15T13:39:26;101346.16;;;8.58;54.51
10897;BME280;5501;51.176;6.470;2023-03-15T13:44:29;101353.28;;;8.50;53.95
10897;BME280;5501;51.176;6.470;2023-03-15T13:49:33;101345.13;;;8.71;55.93
10897;BME280;5501;51.176;6.470;2023-03-15T13:54:35;101335.16;;;8.94;52.97
10897;BME280;5501;51.176;6.470;2023-03-15T14:04:50;101345.28;;;9.33;54.37
10897;BME280;5501;51.176;6.470;2023-03-15T14:15:41;101342.44;;;9.48;50.20
10897;BME280;5501;51.176;6.470;2023-03-15T14:20:57;101338.66;;;9.64;48.36
10897;BME280;5501;51.176;6.470;2023-03-15T14:26:22;101344.06;;;9.58;47.45
10897;BME280;5501;51.176;6.470;2023-03-15T14:31:29;101343.94;;;9.67;46.87
10897;BME280;5501;51.176;6.470;2023-03-15T14:36:40;101351.91;;;9.67;47.83
10897;BME280;5501;51.176;6.470;2023-03-15T14:41:42;101357.09;;;9.76;46.58
10897;BME280;5501;51.176;6.470;2023-03-15T14:46:43;101368.66;;;9.71;45.76
10897;BME280;5501;51.176;6.470;2023-03-15T14:51:45;101363.16;;;9.84;45.29
10897;BME280;5501;51.176;6.470;2023-03-15T14:56:47;101361.09;;;10.04;46.03
10897;BME280;5501;51.176;6.470;2023-03-15T15:01:54;101374.94;;;10.27;44.66
10897;BME280;5501;51.176;6.470;2023-03-15T15:06:57;101364.84;;;9.91;45.32
10897;BME280;5501;51.176;6.470;2023-03-15T15:11:58;101366.28;;;10.13;46.98
10897;BME280;5501;51.176;6.470;2023-03-15T15:17:00;101368.19;;;10.02;47.18
10897;BME280;5501;51.176;6.470;2023-03-15T15:22:02;101361.09;;;10.04;45.77
10897;BME280;5501;51.176;6.470;2023-03-15T15:27:03;101356.63;;;10.08;47.12
10897;BME280;5501;51.176;6.470;2023-03-15T15:32:05;101353.59;;;10.30;46.98
10897;BME280;5501;51.176;6.470;2023-03-15T15:37:10;101343.25;;;10.15;44.46
10897;BME280;5501;51.176;6.470;2023-03-15T15:42:12;101343.41;;;10.03;45.11
10897;BME280;5501;51.176;6.470;2023-03-15T15:47:13;101335.25;;;10.66;59.08
10897;BME280;5501;51.176;6.470;2023-03-15T15:52:14;101339.97;;;9.95;45.81
10897;BME280;5501;51.176;6.470;2023-03-15T15:57:18;101339.25;;;9.84;43.70
10897;BME280;5501;51.176;6.470;2023-03-15T16:02:22;101334.25;;;9.65;45.04
10897;BME280;5501;51.176;6.470;2023-03-15T16:07:24;101335.25;;;9.55;46.25
10897;BME280;5501;51.176;6.470;2023-03-15T16:12:25;101331.59;;;9.63;45.90
10897;BME280;5501;51.176;6.470;2023-03-15T16:17:28;101327.53;;;9.40;47.12
10897;BME280;5501;51.176;6.470;2023-03-15T16:22:30;101330.34;;;9.26;47.97
10897;BME280;5501;51.176;6.470;2023-03-15T16:27:32;101342.81;;;9.21;48.50
10897;BME280;5501;51.176;6.470;2023-03-15T16:32:33;101343.81;;;9.10;47.17
10897;BME280;5501;51.176;6.470;2023-03-15T16:37:45;101350.06;;;9.04;46.78
10897;BME280;5501;51.176;6.470;2023-03-15T16:42:47;101351.88;;;9.02;46.04
10897;BME280;5501;51.176;6.470;2023-03-15T16:47:50;101358.13;;;8.95;46.81
10897;BME280;5501;51.176;6.470;2023-03-15T16:52:54;101369.91;;;8.67;47.79
10897;BME280;5501;51.176;6.470;2023-03-15T16:57:59;101369.06;;;8.65;48.85
10897;BME280;5501;51.176;6.470;2023-03-15T17:03:02;101362.06;;;8.55;50.14
10897;BME280;5501;51.176;6.470;2023-03-15T17:08:04;101372.56;;;8.67;50.25
10897;BME280;5501;51.176;6.470;2023-03-15T17:13:06;101370.03;;;8.55;49.44
10897;BME280;5501;51.176;6.470;2023-03-15T17:18:18;101376.44;;;8.32;51.18
10897;BME280;5501;51.176;6.470;2023-03-15T17:23:21;101379.91;;;8.38;53.70
10897;BME280;5501;51.176;6.470;2023-03-15T17:28:24;101383.56;;;8.25;50.04
10897;BME280;5501;51.176;6.470;2023-03-15T17:33:25;101375.59;;;8.25;49.86
10897;BME280;5501;51.176;6.470;2023-03-15T17:38:28;101388.91;;;8.13;50.38
10897;BME280;5501;51.176;6.470;2023-03-15T17:43:33;101389.06;;;7.89;51.01
10897;BME280;5501;51.176;6.470;2023-03-15T17:48:37;101384.47;;;8.15;50.90
10897;BME280;5501;51.176;6.470;2023-03-15T17:53:39;101397.00;;;7.95;52.24
10897;BME280;5501;51.176;6.470;2023-03-15T17:58:41;101401.47;;;7.83;51.95
10897;BME280;5501;51.176;6.470;2023-03-15T18:03:46;101392.69;;;7.75;51.76
10897;BME280;5501;51.176;6.470;2023-03-15T18:08:49;101388.22;;;7.81;55.03
10897;BME280;5501;51.176;6.470;2023-03-15T18:13:51;101396.22;;;7.74;53.63
10897;BME280;5501;51.176;6.470;2023-03-15T18:18:53;101399.78;;;7.65;55.31
10897;BME280;5501;51.176;6.470;2023-03-15T18:23:54;101414.81;;;7.63;57.50
10897;BME280;5501;51.176;6.470;2023-03-15T18:28:56;101408.63;;;7.69;56.39
10897;BME280;5501;51.176;6.470;2023-03-15T18:33:57;101424.56;;;7.57;59.42
10897;BME280;5501;51.176;6.470;2023-03-15T18:38:59;101424.50;;;7.69;58.93
10897;BME280;5501;51.176;6.470;2023-03-15T18:44:00;101425.44;;;7.54;58.63
10897;BME280;5501;51.176;6.470;2023-03-15T18:49:02;101424.56;;;7.52;59.42
10897;BME280;5501;51.176;6.470;2023-03-15T18:54:05;101429.00;;;7.38;58.22
10897;BME280;5501;51.176;6.470;2023-03-15T18:59:06;101425.50;;;7.39;59.49
10897;BME280;5501;51.176;6.470;2023-03-15T19:04:08;101427.31;;;7.28;61.37
10897;BME280;5501;51.176;6.470;2023-03-15T19:09:10;101426.47;;;7.08;61.69
10897;BME280;5501;51.176;6.470;2023-03-15T19:14:11;101434.38;;;7.17;61.21
10897;BME280;5501;51.176;6.470;2023-03-15T19:19:13;101429.97;;;7.13;59.69
10897;BME280;5501;51.176;6.470;2023-03-15T19:24:14;101417.72;;;6.94;61.23
10897;BME280;5501;51.176;6.470;2023-03-15T19:29:15;101410.63;;;6.93;61.44
10897;BME280;5501;51.176;6.470;2023-03-15T19:34:17;101416.78;;;7.01;61.68
10897;BME280;5501;51.176;6.470;2023-03-15T19:39:18;101417.66;;;7.09;61.42
10897;BME280;5501;51.176;6.470;2023-03-15T19:44:20;101419.47;;;6.98;62.30
10897;BME280;5501;51.176;6.470;2023-03-15T19:49:23;101417.69;;;7.00;62.60
10897;BME280;5501;51.176;6.470;2023-03-15T19:54:24;101422.06;;;7.04;64.95
10897;BME280;5501;51.176;6.470;2023-03-15T19:59:26;101415.94;;;6.87;65.46
10897;BME280;5501;51.176;6.470;2023-03-15T20:04:27;101417.72;;;6.79;67.50
10897;BME280;5501;51.176;6.470;2023-03-15T20:09:29;101417.72;;;6.79;67.50
10897;BME280;5501;51.176;6.470;2023-03-15T20:14:30;101423.91;;;6.72;67.58
10897;BME280;5501;51.176;6.470;2023-03-15T20:19:32;101427.44;;;6.62;68.46
10897;BME280;5501;51.176;6.470;2023-03-15T20:24:34;101427.44;;;6.62;68.46
10897;BME280;5501;51.176;6.470;2023-03-15T20:29:36;101430.09;;;6.64;69.12
10897;BME280;5501;51.176;6.470;2023-03-15T20:34:39;101432.69;;;6.67;69.80
10897;BME280;5501;51.176;6.470;2023-03-15T20:39:41;101432.69;;;6.67;69.80
10897;BME280;5501;51.176;6.470;2023-03-15T20:44:43;101437.13;;;6.57;70.48
10897;BME280;5501;51.176;6.470;2023-03-15T20:49:44;101431.81;;;6.59;70.47
10897;BME280;5501;51.176;6.470;2023-03-15T20:54:46;101431.81;;;6.59;70.47
10897;BME280;5501;51.176;6.470;2023-03-15T20:59:47;101428.31;;;6.45;71.20
10897;BME280;5501;51.176;6.470;2023-03-15T21:04:50;101428.31;;;6.45;71.20
10897;BME280;5501;51.176;6.470;2023-03-15T21:09:51;101428.31;;;6.45;71.20
10897;BME280;5501;51.176;6.470;2023-03-15T21:14:53;101428.31;;;6.45;71.20
10897;BME280;5501;51.176;6.470;2023-03-15T21:19:54;101428.31;;;6.45;71.20
10897;BME280;5501;51.176;6.470;2023-03-15T21:24:57;101428.31;;;6.45;71.20
10897;BME280;5501;51.176;6.470;2023-03-15T21:29:58;57965.28;;;-140.81;nan
10897;BME280;5501;51.176;6.470;2023-03-15T21:35:00;101428.31;;;6.45;71.20
10897;BME280;5501;51.176;6.470;2023-03-15T21:40:02;101428.31;;;6.45;71.20
10897;BME280;5501;51.176;6.470;2023-03-15T21:45:07;101428.31;;;6.45;71.20
10897;BME280;5501;51.176;6.470;2023-03-15T21:50:09;101428.31;;;6.45;71.20
10897;BME280;5501;51.176;6.470;2023-03-15T21:55:12;77918.31;;;-140.81;71.20
10897;BME280;5501;51.176;6.470;2023-03-15T22:00:15;101428.31;;;6.45;71.20
10897;BME280;5501;51.176;6.470;2023-03-15T22:10:20;101428.31;;;6.45;71.20
10897;BME280;5501;51.176;6.470;2023-03-15T22:15:23;101428.31;;;6.45;71.20
10897;BME280;5501;51.176;6.470;2023-03-15T22:20:24;77918.31;;;-140.81;71.20
10897;BME280;5501;51.176;6.470;2023-03-15T22:25:26;101428.31;;;6.45;71.20
10897;BME280;5501;51.176;6.470;2023-03-15T22:35:29;101428.31;;;6.45;71.20
10897;BME280;5501;51.176;6.470;2023-03-15T22:45:32;57965.28;;;-140.81;100.00
10897;BME280;5501;51.176;6.470;2023-03-15T22:50:34;57965.28;;;-140.81;100.00
10897;BME280;5501;51.176;6.470;2023-03-15T22:55:35;57965.28;;;-140.81;nan
10897;BME280;5501;51.176;6.470;2023-03-15T23:00:37;112849.09;;;-140.81;71.20
10897;BME280;5501;51.176;6.470;2023-03-15T23:05:40;57965.28;;;-140.81;100.00
10897;BME280;5501;51.176;6.470;2023-03-15T23:10:42;57965.28;;;-140.81;100.00
10897;BME280;5501;51.176;6.470;2023-03-15T23:15:43;57965.28;;;-140.81;100.00
10897;BME280;5501;51.176;6.470;2023-03-15T23:20:45;57965.28;;;-140.81;100.00
10897;BME280;5501;51.176;6.470;2023-03-15T23:25:49;57965.28;;;-140.81;100.00
10897;BME280;5501;51.176;6.470;2023-03-15T23:30:50;57965.28;;;-140.81;100.00
10897;BME280;5501;51.176;6.470;2023-03-15T23:35:52;57965.28;;;-140.81;100.00
10897;BME280;5501;51.176;6.470;2023-03-15T23:40:55;57965.28;;;-140.81;100.00
10897;BME280;5501;51.176;6.470;2023-03-15T23:45:58;57965.28;;;-140.81;100.00
10897;BME280;5501;51.176;6.470;2023-03-15T23:51:00;57965.28;;;-140.81;100.00
10897;BME280;5501;51.176;6.470;2023-03-15T23:56:04;57965.28;;;-140.81;100.00
